Terminal Aerodrome Forecast
Issued by NWS

Home | Current Version | Previous Version | Text Only | Print | Product List | Glossary On
Versions: 1 2 3 4 5 6 7 8 9 10 11 12 13 14 15 16 17 18 19 20 21 22 23 24 25 26 27 28 29 30
000
FTUS44 KOHX 021100
TAFCKV
TAF
KCKV 021122Z 0212/0312 21006KT P6SM SCT100 BKN250
     FM021800 24007KT P6SM VCTS BKN040CB BKN100
     FM022300 21004KT P6SM SCT040 BKN250
     FM030800 00000KT 3SM BR SCT250=

USA.gov is the U.S. government's official web portal to all federal, state and local government web resources and services.